createdAt,value
2018-07-13T00:00:40.266Z,21.13
2018-07-13T00:03:10.006Z,21.27
2018-07-13T00:05:39.504Z,21.25
2018-07-13T00:08:08.984Z,21.07
2018-07-13T00:10:38.903Z,20.99
2018-07-13T00:13:08.462Z,20.92
2018-07-13T00:15:38.758Z,20.79
2018-07-13T00:18:08.546Z,20.76
2018-07-13T00:20:38.035Z,20.70
2018-07-13T00:23:07.856Z,20.65
2018-07-13T00:25:37.486Z,20.53
2018-07-13T00:28:07.144Z,20.44
2018-07-13T00:30:36.935Z,20.43
2018-07-13T00:33:06.631Z,20.44
2018-07-13T00:35:36.108Z,20.46
2018-07-13T00:38:11.935Z,20.36
2018-07-13T00:40:41.561Z,20.16
2018-07-13T00:43:11.217Z,20.11
2018-07-13T00:45:40.897Z,20.14
2018-07-13T00:48:10.815Z,20.21
2018-07-13T00:50:40.246Z,20.21
2018-07-13T00:53:09.888Z,20.21
2018-07-13T00:55:39.511Z,20.18
2018-07-13T00:58:09.070Z,20.13
2018-07-13T01:00:38.596Z,20.11
2018-07-13T01:03:08.374Z,20.00
2018-07-13T01:05:37.894Z,19.96
2018-07-13T01:08:07.624Z,20.01
2018-07-13T01:10:37.289Z,20.12
2018-07-13T01:13:06.879Z,20.15
2018-07-13T01:15:36.600Z,20.18
2018-07-13T01:18:06.865Z,20.15
2018-07-13T01:20:36.194Z,20.12
2018-07-13T01:23:05.836Z,20.18
2018-07-13T01:25:35.982Z,20.28
2018-07-13T01:28:05.453Z,20.27
2018-07-13T01:30:35.119Z,20.30
2018-07-13T01:33:04.748Z,20.36
2018-07-13T01:35:34.249Z,20.41
2018-07-13T01:38:04.068Z,20.30
2018-07-13T01:40:33.445Z,20.07
2018-07-13T01:43:02.955Z,19.98
2018-07-13T01:45:33.136Z,19.90
2018-07-13T01:48:03.007Z,19.95
2018-07-13T01:50:33.181Z,19.98
2018-07-13T01:53:03.042Z,19.98
2018-07-13T01:55:32.663Z,20.02
2018-07-13T01:58:02.582Z,20.04
2018-07-13T02:00:32.508Z,20.00
2018-07-13T02:03:02.111Z,20.00
2018-07-13T02:05:32.019Z,19.98
2018-07-13T02:08:01.825Z,19.98
2018-07-13T02:10:31.495Z,20.01
2018-07-13T02:13:01.119Z,20.06
2018-07-13T02:15:31.205Z,20.01
2018-07-13T02:18:00.796Z,19.90
2018-07-13T02:20:30.232Z,19.89
2018-07-13T02:22:59.755Z,19.94
2018-07-13T02:25:29.486Z,20.01
2018-07-13T02:27:59.003Z,20.02
2018-07-13T02:30:28.564Z,19.97
2018-07-13T02:32:58.516Z,19.88
2018-07-13T02:35:28.095Z,19.85
2018-07-13T02:37:57.779Z,19.84
2018-07-13T02:40:27.383Z,19.80
2018-07-13T02:42:56.871Z,19.72
2018-07-13T02:45:26.418Z,19.63
2018-07-13T02:47:56.046Z,19.63
2018-07-13T02:50:25.703Z,19.66
2018-07-13T02:52:55.450Z,19.59
2018-07-13T02:55:24.917Z,19.51
2018-07-13T02:57:54.459Z,19.51
2018-07-13T03:00:24.036Z,19.55
2018-07-13T03:02:53.358Z,19.57
2018-07-13T03:05:23.269Z,19.63
2018-07-13T03:07:53.075Z,19.67
2018-07-13T03:10:22.699Z,19.45
2018-07-13T03:12:52.102Z,19.23
2018-07-13T03:15:21.725Z,19.13
2018-07-13T03:17:51.349Z,19.16
2018-07-13T03:20:20.718Z,19.12
2018-07-13T03:25:34.532Z,19.17
2018-07-13T03:28:03.997Z,19.27
2018-07-13T03:30:33.544Z,19.43
2018-07-13T03:33:03.559Z,19.51
2018-07-13T03:35:32.931Z,19.40
2018-07-13T03:38:02.570Z,19.41
2018-07-13T03:40:32.087Z,19.41
2018-07-13T03:43:01.579Z,19.38
2018-07-13T03:45:31.134Z,19.42
2018-07-13T03:48:00.688Z,19.51
2018-07-13T03:50:30.145Z,19.52
2018-07-13T03:52:59.724Z,19.54
2018-07-13T03:55:29.473Z,19.52
2018-07-13T03:57:58.998Z,19.49
2018-07-13T04:00:28.708Z,19.48
2018-07-13T04:02:58.457Z,19.56
2018-07-13T04:05:28.248Z,19.56
2018-07-13T04:07:57.918Z,19.53
2018-07-13T04:10:27.668Z,19.55
2018-07-13T04:12:57.226Z,19.44
2018-07-13T04:15:26.659Z,19.39
2018-07-13T04:17:56.701Z,19.40
2018-07-13T04:20:26.259Z,19.52
2018-07-13T04:22:55.786Z,19.66
2018-07-13T04:25:25.968Z,19.79
2018-07-13T04:27:55.361Z,19.82
2018-07-13T04:30:25.764Z,19.92
2018-07-13T04:32:55.291Z,19.95
2018-07-13T04:35:25.024Z,19.96
2018-07-13T04:37:54.836Z,19.92
2018-07-13T04:40:24.288Z,20.05
2018-07-13T04:42:53.834Z,20.11
2018-07-13T04:45:23.539Z,20.19
2018-07-13T04:47:53.274Z,20.30
2018-07-13T04:50:22.860Z,20.34
2018-07-13T04:52:52.773Z,20.37
2018-07-13T04:55:22.401Z,20.41
2018-07-13T04:57:52.247Z,20.48
2018-07-13T05:00:22.012Z,20.56
2018-07-13T05:02:52.044Z,20.63
2018-07-13T05:05:21.974Z,20.68
2018-07-13T05:07:51.707Z,20.73
2018-07-13T05:10:21.718Z,20.80
2018-07-13T05:12:51.429Z,20.82
2018-07-13T05:15:20.929Z,20.91
2018-07-13T05:17:50.681Z,21.03
2018-07-13T05:20:20.481Z,21.14
2018-07-13T05:22:50.295Z,21.19
2018-07-13T05:25:20.209Z,21.27
2018-07-13T05:27:50.354Z,21.33
2018-07-13T05:30:20.165Z,21.36
2018-07-13T05:32:49.722Z,21.39
2018-07-13T05:35:19.798Z,21.40
2018-07-13T05:37:49.539Z,21.43
2018-07-13T05:40:19.259Z,21.47
2018-07-13T05:42:49.391Z,21.47
2018-07-13T05:45:19.451Z,21.52
2018-07-13T05:47:49.308Z,21.54
2018-07-13T05:50:19.396Z,21.62
2018-07-13T05:52:49.184Z,21.68
2018-07-13T05:55:19.405Z,21.73
2018-07-13T05:57:49.522Z,21.79
2018-07-13T06:00:19.190Z,21.88
2018-07-13T06:02:49.049Z,21.96
2018-07-13T06:05:19.240Z,21.98
2018-07-13T06:07:49.383Z,21.98
2018-07-13T06:10:19.017Z,22.01
2018-07-13T06:12:48.916Z,22.01
2018-07-13T06:15:18.603Z,22.03
2018-07-13T06:17:47.943Z,22.04
2018-07-13T06:20:17.724Z,22.11
2018-07-13T06:22:47.344Z,22.31
2018-07-13T06:25:16.827Z,22.32
2018-07-13T06:27:46.348Z,22.33
2018-07-13T06:30:16.597Z,22.35
2018-07-13T06:32:45.956Z,22.43
2018-07-13T06:35:15.767Z,22.48
2018-07-13T06:37:45.660Z,22.47
2018-07-13T06:40:15.313Z,22.52
2018-07-13T06:42:45.140Z,22.58
2018-07-13T06:45:14.934Z,22.64
2018-07-13T06:47:44.481Z,22.70
2018-07-13T06:50:13.915Z,22.84
2018-07-13T06:52:43.354Z,22.93
2018-07-13T06:55:13.923Z,23.02
2018-07-13T06:57:54.392Z,23.06
2018-07-13T07:01:01.094Z,23.07
2018-07-13T07:03:31.559Z,23.11
2018-07-13T07:06:12.531Z,23.15
2018-07-13T07:08:43.872Z,23.17
2018-07-13T07:11:13.450Z,23.30
2018-07-13T07:13:44.691Z,23.38
2018-07-13T07:16:14.271Z,23.45
2018-07-13T07:18:44.250Z,23.53
2018-07-13T07:21:13.939Z,23.59
2018-07-13T07:23:43.371Z,23.62
2018-07-13T07:26:13.204Z,23.67
2018-07-13T07:28:42.790Z,23.72
2018-07-13T07:31:12.776Z,23.82
2018-07-13T07:33:42.408Z,23.89
2018-07-13T07:36:12.043Z,23.97
2018-07-13T07:38:41.776Z,24.02
2018-07-13T07:41:11.368Z,24.33
2018-07-13T07:43:41.118Z,25.82
2018-07-13T07:46:10.854Z,27.49
2018-07-13T07:48:40.345Z,28.16
2018-07-13T07:51:10.409Z,28.53
2018-07-13T07:53:39.814Z,28.94
2018-07-13T07:56:09.606Z,29.20
2018-07-13T07:58:39.181Z,30.04
2018-07-13T08:01:08.796Z,30.09
2018-07-13T08:03:38.395Z,29.85
2018-07-13T08:06:08.424Z,30.08
2018-07-13T08:08:37.710Z,30.12
2018-07-13T08:11:07.395Z,29.88
2018-07-13T08:13:37.214Z,29.29
2018-07-13T08:16:06.890Z,29.06
2018-07-13T08:18:36.606Z,28.99
2018-07-13T08:21:06.826Z,28.58
2018-07-13T08:23:36.898Z,28.20
2018-07-13T08:26:06.549Z,28.03
2018-07-13T08:28:36.684Z,27.99
2018-07-13T08:31:06.960Z,28.17
2018-07-13T08:33:36.558Z,28.10
2018-07-13T08:36:06.569Z,27.44
2018-07-13T08:38:36.534Z,27.62
2018-07-13T08:41:06.342Z,28.14
2018-07-13T08:43:36.232Z,27.87
2018-07-13T08:46:07.147Z,27.66
2018-07-13T08:48:37.088Z,27.67
2018-07-13T08:51:07.348Z,27.60
2018-07-13T08:53:37.277Z,27.57
2018-07-13T08:56:07.427Z,27.69
2018-07-13T08:58:37.165Z,27.49
2018-07-13T09:01:06.994Z,27.54
2018-07-13T09:03:37.141Z,27.39
2018-07-13T09:06:07.110Z,27.23
2018-07-13T09:08:37.333Z,26.76
2018-07-13T09:11:07.789Z,26.93
2018-07-13T09:13:37.203Z,27.05
2018-07-13T09:16:06.914Z,27.22
2018-07-13T09:18:36.611Z,27.11
2018-07-13T09:21:06.102Z,26.87
2018-07-13T09:23:35.943Z,26.19
2018-07-13T09:26:05.994Z,26.47
2018-07-13T09:28:35.696Z,26.67
2018-07-13T09:31:05.281Z,26.40
2018-07-13T09:33:34.917Z,26.52
2018-07-13T09:36:04.988Z,26.50
2018-07-13T09:38:34.648Z,26.62
2018-07-13T09:41:04.721Z,26.47
2018-07-13T09:43:34.329Z,26.59
2018-07-13T09:46:03.662Z,26.21
2018-07-13T09:48:33.516Z,26.12
2018-07-13T09:51:03.194Z,26.32
2018-07-13T09:53:32.956Z,26.24
2018-07-13T09:56:02.939Z,26.00
2018-07-13T09:58:34.967Z,26.34
2018-07-13T10:01:10.040Z,26.44
2018-07-13T10:03:39.751Z,26.48
2018-07-13T10:06:09.446Z,26.04
2018-07-13T10:08:38.986Z,26.35
2018-07-13T10:11:08.813Z,26.42
2018-07-13T10:13:38.278Z,26.30
2018-07-13T10:16:07.784Z,26.46
2018-07-13T10:18:37.796Z,26.61
2018-07-13T10:21:08.596Z,26.79
2018-07-13T10:23:38.922Z,26.72
2018-07-13T10:26:11.750Z,26.85
2018-07-13T10:28:41.700Z,27.04
2018-07-13T10:31:11.742Z,27.19
2018-07-13T10:33:42.025Z,27.07
2018-07-13T10:36:14.621Z,26.96
2018-07-13T10:38:44.205Z,26.94
2018-07-13T10:41:13.845Z,26.85
2018-07-13T10:43:43.560Z,27.10
2018-07-13T10:46:12.958Z,26.52
2018-07-13T10:48:42.745Z,26.63
2018-07-13T10:51:12.385Z,26.53
2018-07-13T10:53:41.754Z,26.60
2018-07-13T10:56:11.640Z,26.09
2018-07-13T10:58:41.481Z,26.62
2018-07-13T11:01:10.968Z,26.53
2018-07-13T11:03:40.564Z,26.43
2018-07-13T11:06:10.126Z,26.58
2018-07-13T11:08:39.638Z,26.63
2018-07-13T11:11:09.613Z,26.66
2018-07-13T11:13:39.555Z,26.61
2018-07-13T11:16:09.063Z,26.58
2018-07-13T11:18:38.682Z,26.49
2018-07-13T11:21:08.716Z,26.51
2018-07-13T11:23:38.322Z,26.42
2018-07-13T11:26:08.391Z,26.34
2018-07-13T11:28:38.250Z,26.40
2018-07-13T11:31:08.457Z,26.40
2018-07-13T11:33:38.157Z,26.63
2018-07-13T11:36:08.209Z,26.51
2018-07-13T11:38:38.044Z,26.56
2018-07-13T11:41:07.638Z,26.44
2018-07-13T11:43:37.180Z,26.65
2018-07-13T11:46:06.635Z,26.76
2018-07-13T11:48:36.314Z,26.70
2018-07-13T11:51:06.008Z,26.86
2018-07-13T11:53:35.423Z,26.90
2018-07-13T11:56:05.176Z,26.96
2018-07-13T11:58:35.078Z,26.83
2018-07-13T12:01:04.906Z,26.74
2018-07-13T12:03:34.605Z,26.73
2018-07-13T12:06:04.475Z,26.74
2018-07-13T12:08:34.354Z,26.70
2018-07-13T12:11:04.288Z,26.79
2018-07-13T12:13:34.190Z,27.04
2018-07-13T12:16:03.919Z,27.22
2018-07-13T12:18:33.539Z,27.13
2018-07-13T12:21:03.254Z,26.95
2018-07-13T12:23:32.840Z,26.83
2018-07-13T12:26:02.657Z,27.07
2018-07-13T12:28:32.114Z,27.05
2018-07-13T12:31:01.773Z,26.77
2018-07-13T12:33:31.409Z,26.86
2018-07-13T12:36:01.040Z,26.86
2018-07-13T12:38:30.902Z,26.86
2018-07-13T12:41:00.621Z,27.09
2018-07-13T12:43:30.059Z,27.08
2018-07-13T12:45:59.871Z,27.31
2018-07-13T12:48:29.743Z,27.48
2018-07-13T12:50:59.339Z,27.30
2018-07-13T12:53:29.369Z,27.36
2018-07-13T12:55:59.253Z,27.36
2018-07-13T12:58:28.788Z,27.55
2018-07-13T13:00:59.198Z,27.55
2018-07-13T13:03:28.770Z,27.55
2018-07-13T13:05:58.689Z,27.72
2018-07-13T13:08:28.724Z,27.85
2018-07-13T13:11:00.291Z,28.04
2018-07-13T13:13:30.134Z,28.27
2018-07-13T13:16:00.037Z,28.27
2018-07-13T13:18:29.888Z,28.18
2018-07-13T13:20:59.673Z,27.79
2018-07-13T13:23:29.296Z,28.14
2018-07-13T13:25:59.272Z,28.22
2018-07-13T13:28:28.705Z,28.16
2018-07-13T13:30:58.430Z,27.83
2018-07-13T13:33:28.259Z,27.70
2018-07-13T13:35:57.988Z,27.98
2018-07-13T13:38:27.592Z,28.31
2018-07-13T13:40:57.307Z,28.39
2018-07-13T13:43:27.117Z,28.11
2018-07-13T13:45:56.769Z,28.07
2018-07-13T13:48:26.473Z,28.20
2018-07-13T13:50:56.241Z,28.15
2018-07-13T13:53:25.751Z,27.91
2018-07-13T13:55:55.376Z,28.02
2018-07-13T13:58:25.329Z,28.39
2018-07-13T14:00:54.665Z,28.53
2018-07-13T14:03:24.309Z,27.90
2018-07-13T14:05:54.158Z,27.90
2018-07-13T14:08:23.673Z,28.01
2018-07-13T14:10:53.427Z,28.05
2018-07-13T14:13:23.121Z,27.92
2018-07-13T14:15:52.596Z,27.88
2018-07-13T14:18:22.274Z,27.77
2018-07-13T14:20:52.017Z,28.07
2018-07-13T14:23:21.535Z,27.99
2018-07-13T14:25:51.258Z,27.85
2018-07-13T14:28:21.079Z,27.83
2018-07-13T14:30:50.546Z,27.53
2018-07-13T14:33:20.314Z,27.81
2018-07-13T14:35:50.341Z,27.49
2018-07-13T14:38:20.035Z,27.60
2018-07-13T14:40:50.222Z,27.38
2018-07-13T14:43:19.980Z,27.10
2018-07-13T14:45:49.684Z,27.19
2018-07-13T14:48:19.274Z,27.24
2018-07-13T14:50:49.170Z,27.32
2018-07-13T14:53:19.132Z,27.30
2018-07-13T14:55:48.815Z,27.17
2018-07-13T14:58:18.213Z,27.22
2018-07-13T15:00:47.907Z,27.02
2018-07-13T15:03:17.584Z,26.94
2018-07-13T15:05:47.447Z,26.73
2018-07-13T15:08:17.156Z,26.71
2018-07-13T15:10:46.890Z,26.60
2018-07-13T15:13:16.383Z,26.52
2018-07-13T15:15:46.246Z,26.65
2018-07-13T15:18:16.099Z,26.50
2018-07-13T15:20:45.722Z,26.34
2018-07-13T15:23:15.813Z,26.29
2018-07-13T15:25:45.734Z,26.53
2018-07-13T15:28:15.176Z,26.43
2018-07-13T15:30:44.994Z,26.39
2018-07-13T15:33:14.842Z,26.34
2018-07-13T15:35:44.311Z,26.31
2018-07-13T15:38:14.163Z,26.09
2018-07-13T15:40:44.213Z,26.04
2018-07-13T15:43:13.839Z,26.04
2018-07-13T15:45:44.208Z,26.07
2018-07-13T15:48:13.978Z,25.89
2018-07-13T15:50:43.742Z,25.73
2018-07-13T15:53:13.727Z,25.77
2018-07-13T15:55:48.579Z,25.81
2018-07-13T15:58:18.300Z,25.70
2018-07-13T16:00:48.040Z,25.80
2018-07-13T16:03:17.601Z,25.55
2018-07-13T16:05:48.111Z,25.60
2018-07-13T16:08:17.594Z,25.58
2018-07-13T16:10:47.193Z,25.59
2018-07-13T16:13:17.072Z,25.59
2018-07-13T16:15:47.011Z,25.68
2018-07-13T16:18:16.927Z,25.33
2018-07-13T16:20:46.867Z,24.99
2018-07-13T16:23:16.750Z,24.92
2018-07-13T16:25:47.456Z,25.01
2018-07-13T16:28:17.522Z,24.80
2018-07-13T16:30:47.593Z,25.01
2018-07-13T16:33:17.494Z,24.88
2018-07-13T16:35:47.230Z,24.82
2018-07-13T16:38:17.084Z,24.75
2018-07-13T16:40:47.466Z,24.76
2018-07-13T16:43:17.299Z,24.90
2018-07-13T16:45:47.527Z,24.78
2018-07-13T16:48:17.517Z,24.62
2018-07-13T16:50:47.117Z,24.35
2018-07-13T16:53:16.891Z,24.40
2018-07-13T16:55:47.077Z,24.50
2018-07-13T16:58:17.070Z,24.65
2018-07-13T17:00:46.603Z,24.34
2018-07-13T17:03:16.174Z,24.36
2018-07-13T17:05:45.960Z,24.09
2018-07-13T17:08:15.383Z,24.04
2018-07-13T17:10:45.163Z,24.05
2018-07-13T17:13:14.926Z,24.04
2018-07-13T17:15:44.559Z,24.07
2018-07-13T17:18:14.170Z,23.87
2018-07-13T17:20:43.676Z,23.90
2018-07-13T17:23:13.871Z,23.86
2018-07-13T17:25:43.525Z,23.63
2018-07-13T17:28:13.037Z,23.54
2018-07-13T17:30:42.841Z,23.74
2018-07-13T17:33:12.763Z,23.75
2018-07-13T17:35:42.316Z,23.63
2018-07-13T17:38:11.875Z,23.76
2018-07-13T17:40:41.888Z,23.72
2018-07-13T17:43:11.725Z,23.57
2018-07-13T17:45:41.224Z,23.48
2018-07-13T17:48:10.870Z,23.35
2018-07-13T17:50:40.575Z,23.38
2018-07-13T17:53:09.955Z,23.44
2018-07-13T17:55:39.514Z,23.24
2018-07-13T17:58:09.292Z,23.35
2018-07-13T18:00:38.789Z,23.32
2018-07-13T18:03:08.674Z,23.23
2018-07-13T18:05:38.392Z,23.25
2018-07-13T18:08:08.131Z,22.99
2018-07-13T18:10:38.103Z,23.06
2018-07-13T18:13:07.799Z,22.97
2018-07-13T18:15:38.042Z,23.00
2018-07-13T18:18:07.797Z,22.99
2018-07-13T18:20:37.548Z,22.87
2018-07-13T18:23:07.311Z,22.79
2018-07-13T18:25:37.014Z,22.68
2018-07-13T18:28:06.995Z,22.60
2018-07-13T18:30:36.676Z,22.49
2018-07-13T18:33:06.469Z,22.27
2018-07-13T18:35:36.397Z,22.46
2018-07-13T18:38:05.850Z,22.38
2018-07-13T18:40:35.626Z,22.29
2018-07-13T18:43:05.646Z,22.19
2018-07-13T18:45:35.421Z,22.04
2018-07-13T18:48:05.322Z,22.09
2018-07-13T18:50:35.159Z,21.98
2018-07-13T18:53:05.035Z,21.95
2018-07-13T18:55:34.657Z,21.92
2018-07-13T18:58:04.379Z,21.91
2018-07-13T19:00:33.935Z,22.04
2018-07-13T19:03:03.687Z,21.99
2018-07-13T19:05:33.587Z,21.89
2018-07-13T19:08:03.184Z,21.90
2018-07-13T19:10:32.948Z,21.82
2018-07-13T19:13:02.700Z,21.77
2018-07-13T19:15:32.240Z,21.83
2018-07-13T19:18:02.351Z,21.79
2018-07-13T19:20:32.232Z,21.83
2018-07-13T19:23:02.466Z,21.85
2018-07-13T19:25:32.100Z,21.73
2018-07-13T19:28:02.349Z,21.73
2018-07-13T19:30:32.145Z,21.70
2018-07-13T19:33:01.852Z,21.64
2018-07-13T19:35:32.192Z,21.63
2018-07-13T19:38:02.013Z,21.63
2018-07-13T19:40:31.662Z,21.51
2018-07-13T19:43:01.828Z,21.42
2018-07-13T19:45:31.921Z,21.48
2018-07-13T19:48:01.738Z,21.54
2018-07-13T19:50:31.716Z,21.48
2018-07-13T19:53:01.804Z,21.33
2018-07-13T19:55:31.272Z,21.32
2018-07-13T19:58:00.734Z,21.27
2018-07-13T20:00:30.628Z,21.05
2018-07-13T20:03:00.330Z,21.11
2018-07-13T20:05:29.832Z,21.04
2018-07-13T20:07:59.801Z,21.05
2018-07-13T20:10:29.398Z,21.13
2018-07-13T20:12:58.850Z,21.04
2018-07-13T20:15:28.419Z,21.06
2018-07-13T20:17:58.274Z,21.02
2018-07-13T20:20:27.893Z,20.98
2018-07-13T20:22:58.058Z,21.05
2018-07-13T20:25:28.029Z,21.06
2018-07-13T20:27:57.695Z,20.93
2018-07-13T20:30:27.789Z,20.85
2018-07-13T20:32:57.303Z,20.77
2018-07-13T20:35:26.840Z,20.95
2018-07-13T20:37:56.811Z,20.92
2018-07-13T20:40:26.377Z,20.84
2018-07-13T20:42:56.322Z,20.63
2018-07-13T20:45:26.903Z,20.62
2018-07-13T20:47:56.638Z,20.63
2018-07-13T20:50:26.466Z,20.69
2018-07-13T20:52:56.369Z,20.69
2018-07-13T20:55:26.235Z,20.46
2018-07-13T20:57:56.204Z,20.39
2018-07-13T21:00:25.919Z,20.52
2018-07-13T21:02:55.676Z,20.58
2018-07-13T21:05:25.328Z,20.65
2018-07-13T21:07:55.228Z,20.43
2018-07-13T21:10:25.305Z,20.34
2018-07-13T21:12:55.669Z,20.38
2018-07-13T21:15:25.031Z,20.51
2018-07-13T21:17:54.632Z,20.50
2018-07-13T21:20:24.531Z,20.43
2018-07-13T21:22:54.035Z,20.51
2018-07-13T21:25:24.136Z,20.54
2018-07-13T21:27:54.143Z,20.53
2018-07-13T21:30:24.090Z,20.40
2018-07-13T21:32:53.872Z,20.26
2018-07-13T21:35:23.764Z,20.32
2018-07-13T21:37:53.499Z,20.41
2018-07-13T21:40:23.125Z,20.45
2018-07-13T21:42:52.790Z,20.36
2018-07-13T21:45:22.838Z,20.18
2018-07-13T21:47:52.194Z,20.08
2018-07-13T21:50:21.984Z,20.06
2018-07-13T21:52:51.848Z,20.07
2018-07-13T21:55:21.371Z,20.13
2018-07-13T21:57:51.315Z,20.15
2018-07-13T22:00:21.410Z,20.19
2018-07-13T22:02:50.838Z,20.26
2018-07-13T22:05:21.293Z,19.91
2018-07-13T22:07:50.749Z,20.03
2018-07-13T22:10:20.279Z,19.87
2018-07-13T22:12:50.247Z,19.79
2018-07-13T22:15:19.911Z,19.84
2018-07-13T22:17:49.861Z,19.80
2018-07-13T22:20:19.534Z,19.86
2018-07-13T22:22:49.555Z,19.90
2018-07-13T22:25:19.340Z,19.75
2018-07-13T22:27:49.219Z,19.75
2018-07-13T22:30:18.820Z,19.74
2018-07-13T22:32:48.804Z,19.67
2018-07-13T22:35:18.708Z,19.69
2018-07-13T22:37:48.806Z,19.64
2018-07-13T22:40:18.651Z,19.63
2018-07-13T22:42:48.486Z,19.58
2018-07-13T22:45:18.478Z,19.53
2018-07-13T22:47:48.719Z,19.34
2018-07-13T22:50:18.368Z,19.15
2018-07-13T22:52:48.390Z,19.21
2018-07-13T22:55:18.049Z,19.17
2018-07-13T22:57:48.227Z,19.34
2018-07-13T23:00:18.357Z,19.34
2018-07-13T23:02:48.430Z,19.35
2018-07-13T23:05:18.224Z,19.06
2018-07-13T23:07:47.880Z,18.93
2018-07-13T23:10:17.591Z,18.98
2018-07-13T23:12:47.376Z,19.19
2018-07-13T23:15:17.138Z,19.28
2018-07-13T23:17:47.047Z,19.30
2018-07-13T23:20:16.696Z,19.27
2018-07-13T23:22:46.641Z,19.23
2018-07-13T23:25:16.268Z,19.21
2018-07-13T23:27:46.113Z,19.13
2018-07-13T23:30:15.932Z,19.12
2018-07-13T23:32:45.364Z,18.94
2018-07-13T23:35:15.223Z,18.90
2018-07-13T23:37:44.544Z,18.99
2018-07-13T23:40:14.169Z,18.95
2018-07-13T23:42:44.096Z,18.96
2018-07-13T23:45:13.717Z,18.82
2018-07-13T23:47:43.401Z,18.86
2018-07-13T23:50:13.597Z,18.77
2018-07-13T23:52:42.933Z,18.69
2018-07-13T23:55:12.416Z,18.72
2018-07-13T23:57:41.999Z,18.84
